VOE1817 LEMD-LIMJ
Flight info
| Callsign | VOE1817 |
|---|---|
| Flight time | N/A |
| Altitude | 35000 |
| Route | PINAR N870 PONEN/N0433F370 N870 SEROX/N0432F360 N870 KARES DCT BISES N870 BCN M985 LUMAS DCT NEVIX DCT ODIXU DCT ADITA DCT RAPED Y15 XAMAL/N0341F170 Y15 USANO/N0345F180 Y15 EGHIN |
| Aircraft | A320/M-SDFGHIJ1RWY/LB1 |
Departure
| Time | N/A |
|---|---|
| Airport | Adolfo Suárez Madrid–Barajas Airport (LEMD) |
Arrival
| Time | 2026-04-20 18:43 |
|---|---|
| Airport | Genoa Cristoforo Colombo Airport (LIMJ) |
| Time | Latitude | Longitude | Altitude | Speed | Heading |
|---|---|---|---|---|---|
| 2026-04-20 18:32 | 44.13841 | 9.22389 | 10472 ft | 264 kts | 146° |
| 2026-04-20 18:32 | 44.12377 | 9.23931 | 10156 ft | 263 kts | 146° |
| 2026-04-20 18:32 | 44.10948 | 9.25523 | 9810 ft | 265 kts | 135° |
| 2026-04-20 18:32 | 44.10116 | 9.27784 | 9433 ft | 267 kts | 97° |
| 2026-04-20 18:33 | 44.10390 | 9.30262 | 9147 ft | 259 kts | 59° |
| 2026-04-20 18:33 | 44.11415 | 9.32294 | 8884 ft | 257 kts | 50° |
| 2026-04-20 18:33 | 44.12511 | 9.34262 | 8628 ft | 257 kts | 50° |
| 2026-04-20 18:33 | 44.13685 | 9.36108 | 8361 ft | 252 kts | 32° |
| 2026-04-20 18:34 | 44.15266 | 9.36968 | 8108 ft | 243 kts | 359° |
| 2026-04-20 18:34 | 44.16876 | 9.36547 | 7879 ft | 235 kts | 328° |
| 2026-04-20 18:34 | 44.18192 | 9.35264 | 7654 ft | 234 kts | 320° |
| 2026-04-20 18:34 | 44.19491 | 9.33885 | 7450 ft | 235 kts | 320° |
| 2026-04-20 18:35 | 44.20790 | 9.32511 | 7243 ft | 235 kts | 320° |
| 2026-04-20 18:35 | 44.22090 | 9.31138 | 7026 ft | 234 kts | 320° |
| 2026-04-20 18:35 | 44.23384 | 9.29770 | 6819 ft | 233 kts | 320° |
| 2026-04-20 18:35 | 44.24671 | 9.28407 | 6616 ft | 233 kts | 321° |
| 2026-04-20 18:36 | 44.25965 | 9.27038 | 6397 ft | 233 kts | 321° |
| 2026-04-20 18:36 | 44.27261 | 9.25668 | 6176 ft | 233 kts | 321° |
| 2026-04-20 18:36 | 44.28548 | 9.24307 | 5961 ft | 231 kts | 321° |
| 2026-04-20 18:36 | 44.29822 | 9.22962 | 5678 ft | 229 kts | 322° |
| 2026-04-20 18:37 | 44.31083 | 9.21632 | 5395 ft | 227 kts | 321° |
| 2026-04-20 18:37 | 44.32333 | 9.20310 | 5118 ft | 224 kts | 321° |
| 2026-04-20 18:37 | 44.33440 | 9.18828 | 4863 ft | 219 kts | 304° |
| 2026-04-20 18:37 | 44.34130 | 9.16968 | 4594 ft | 214 kts | 285° |
| 2026-04-20 18:38 | 44.34570 | 9.15003 | 4333 ft | 211 kts | 286° |
| 2026-04-20 18:38 | 44.35010 | 9.13053 | 4082 ft | 209 kts | 285° |
| 2026-04-20 18:38 | 44.35437 | 9.11112 | 3833 ft | 208 kts | 285° |
| 2026-04-20 18:38 | 44.35856 | 9.09185 | 3600 ft | 208 kts | 285° |
| 2026-04-20 18:39 | 44.36133 | 9.07910 | 3467 ft | 205 kts | 284° |
| 2026-04-20 18:39 | 44.36545 | 9.06010 | 3159 ft | 203 kts | 284° |
| 2026-04-20 18:39 | 44.36952 | 9.04132 | 2863 ft | 200 kts | 284° |
| 2026-04-20 18:39 | 44.37352 | 9.02288 | 2590 ft | 196 kts | 283° |
| 2026-04-20 18:40 | 44.37744 | 9.00476 | 2332 ft | 194 kts | 285° |
| 2026-04-20 18:40 | 44.38130 | 8.98688 | 2039 ft | 189 kts | 284° |
| 2026-04-20 18:40 | 44.38499 | 8.96983 | 1768 ft | 179 kts | 282° |
| 2026-04-20 18:40 | 44.38848 | 8.95368 | 1527 ft | 168 kts | 284° |
| 2026-04-20 18:41 | 44.39173 | 8.93859 | 1314 ft | 158 kts | 285° |
| 2026-04-20 18:41 | 44.39484 | 8.92416 | 1087 ft | 153 kts | 285° |
| 2026-04-20 18:41 | 44.39788 | 8.91000 | 878 ft | 150 kts | 286° |
| 2026-04-20 18:41 | 44.40105 | 8.89622 | 633 ft | 148 kts | 285° |
| 2026-04-20 18:42 | 44.40389 | 8.88223 | 411 ft | 150 kts | 283° |
| 2026-04-20 18:42 | 44.40671 | 8.86818 | 247 ft | 150 kts | 283° |
| 2026-04-20 18:42 | 44.40953 | 8.85404 | 40 ft | 151 kts | 283° |
| 2026-04-20 18:42 | 44.41200 | 8.84116 | 24 ft | 116 kts | 286° |
| 2026-04-20 18:43 | 44.41343 | 8.83422 | 25 ft | 46 kts | 285° |
| 2026-04-20 18:43 | 44.41490 | 8.83088 | 26 ft | 6 kts | 345° |